createdAt,value
2022-12-31T00:01:09.773Z,22.48
2022-12-31T00:03:56.750Z,22.95
2022-12-31T00:06:41.595Z,22.35
2022-12-31T00:12:10.947Z,26.27
2022-12-31T00:17:40.515Z,24.00
2022-12-31T00:20:25.616Z,22.75
2022-12-31T00:23:10.900Z,22.83
2022-12-31T00:28:40.859Z,21.00
2022-12-31T00:31:28.495Z,22.42
2022-12-31T00:34:13.246Z,24.75
2022-12-31T00:39:42.612Z,24.33
2022-12-31T00:42:27.563Z,24.65
2022-12-31T00:45:12.072Z,26.05
2022-12-31T00:50:41.469Z,22.40
2022-12-31T00:53:27.263Z,24.77
2022-12-31T00:56:15.213Z,25.70
2022-12-31T00:59:00.484Z,25.33
2022-12-31T01:01:45.791Z,24.65
2022-12-31T01:07:15.105Z,22.35
2022-12-31T01:09:59.963Z,22.83
2022-12-31T01:15:35.989Z,21.60
2022-12-31T01:21:07.861Z,20.73
2022-12-31T01:23:52.597Z,22.77
2022-12-31T01:26:38.370Z,25.92
2022-12-31T01:29:23.041Z,30.05
2022-12-31T01:32:07.833Z,31.30
2022-12-31T01:34:52.932Z,30.42
2022-12-31T01:40:23.499Z,25.52
2022-12-31T01:43:20.381Z,25.55
2022-12-31T01:46:05.242Z,24.65
2022-12-31T01:48:53.647Z,21.63
2022-12-31T01:51:40.979Z,22.02
2022-12-31T01:54:29.193Z,19.17
2022-12-31T01:57:15.142Z,20.00
2022-12-31T02:00:01.200Z,19.48
2022-12-31T02:02:46.073Z,19.58
2022-12-31T02:05:42.149Z,19.30
2022-12-31T02:08:27.062Z,18.83
2022-12-31T02:11:25.242Z,18.80
2022-12-31T02:14:17.996Z,18.20
2022-12-31T02:17:02.867Z,19.33
2022-12-31T02:20:00.447Z,19.27
2022-12-31T02:23:12.651Z,17.23
2022-12-31T02:26:34.953Z,17.67
2022-12-31T02:29:28.899Z,16.33
2022-12-31T02:32:20.375Z,17.75
2022-12-31T02:35:30.262Z,19.15
2022-12-31T02:38:26.884Z,17.40
2022-12-31T02:41:36.514Z,18.77
2022-12-31T02:44:27.832Z,17.70
2022-12-31T02:47:34.022Z,17.00
2022-12-31T02:50:21.446Z,16.83
2022-12-31T02:53:38.338Z,17.90
2022-12-31T02:56:48.954Z,18.50
2022-12-31T03:03:37.970Z,19.08
2022-12-31T03:06:23.095Z,18.88
2022-12-31T03:09:13.781Z,17.92
2022-12-31T03:12:18.144Z,18.27
2022-12-31T03:15:06.095Z,17.27
2022-12-31T03:18:09.707Z,18.38
2022-12-31T03:21:13.147Z,18.73
2022-12-31T03:24:16.555Z,17.48
2022-12-31T03:27:01.388Z,16.90
2022-12-31T03:29:46.242Z,15.48
2022-12-31T03:32:31.306Z,15.20
2022-12-31T03:38:03.275Z,15.25
2022-12-31T03:40:50.989Z,15.38
2022-12-31T03:43:35.643Z,15.25
2022-12-31T03:46:20.863Z,16.35
2022-12-31T03:49:05.613Z,17.17
2022-12-31T03:51:50.719Z,18.77
2022-12-31T03:54:35.274Z,17.20
2022-12-31T03:57:20.002Z,18.30
2022-12-31T04:00:06.964Z,17.85
2022-12-31T04:02:52.597Z,17.25
2022-12-31T04:05:37.312Z,17.63
2022-12-31T04:08:22.689Z,17.35
2022-12-31T04:11:07.307Z,18.10
2022-12-31T04:13:52.207Z,18.85
2022-12-31T04:19:22.228Z,15.82
2022-12-31T04:22:06.857Z,15.13
2022-12-31T04:24:51.775Z,16.13
2022-12-31T04:30:26.167Z,15.30
2022-12-31T04:33:12.069Z,15.52
2022-12-31T04:36:07.532Z,16.95
2022-12-31T04:38:52.515Z,16.58
2022-12-31T04:44:22.236Z,14.52
2022-12-31T04:47:07.204Z,16.25
2022-12-31T04:49:52.141Z,15.55
2022-12-31T04:52:42.346Z,17.08
2022-12-31T04:55:28.013Z,17.55
2022-12-31T05:00:57.900Z,16.83
2022-12-31T05:06:27.544Z,17.27
2022-12-31T05:11:56.994Z,16.10
2022-12-31T05:17:26.474Z,17.10
2022-12-31T05:20:11.409Z,18.13
2022-12-31T05:22:56.000Z,18.30
2022-12-31T05:25:42.852Z,18.88
2022-12-31T05:28:28.034Z,21.10
2022-12-31T05:31:12.991Z,20.95
2022-12-31T05:33:57.958Z,19.77
2022-12-31T05:36:42.500Z,20.48
2022-12-31T05:39:27.222Z,20.13
2022-12-31T05:42:11.971Z,21.13
2022-12-31T05:47:42.194Z,18.67
2022-12-31T05:50:27.076Z,19.88
2022-12-31T05:53:14.060Z,20.42
2022-12-31T05:55:59.571Z,21.85
2022-12-31T05:58:44.065Z,22.08
2022-12-31T06:01:28.604Z,23.08
2022-12-31T06:06:58.309Z,20.55
2022-12-31T06:09:43.155Z,22.58
2022-12-31T06:15:12.537Z,21.60
2022-12-31T06:17:57.350Z,24.63
2022-12-31T06:23:26.847Z,21.92
2022-12-31T06:26:11.859Z,24.05
2022-12-31T06:28:56.751Z,25.52
2022-12-31T06:34:26.103Z,23.23
2022-12-31T06:37:10.718Z,27.55
2022-12-31T06:39:55.663Z,26.35
2022-12-31T06:42:41.632Z,27.50
2022-12-31T06:45:26.131Z,29.98
2022-12-31T06:50:55.718Z,27.45
2022-12-31T06:53:40.963Z,26.30
2022-12-31T06:56:34.349Z,27.48
2022-12-31T06:59:28.648Z,30.00
2022-12-31T07:02:38.009Z,28.95
2022-12-31T07:05:29.127Z,27.98
2022-12-31T07:08:41.861Z,31.38
2022-12-31T07:11:32.113Z,28.45
2022-12-31T07:14:28.637Z,29.25
2022-12-31T07:17:44.360Z,29.42
2022-12-31T07:20:29.836Z,29.52
2022-12-31T07:23:16.023Z,30.50
2022-12-31T07:26:17.153Z,29.77
2022-12-31T07:29:39.884Z,29.40
2022-12-31T07:32:38.863Z,30.90
2022-12-31T07:35:35.670Z,27.67
2022-12-31T07:38:39.304Z,27.45
2022-12-31T07:41:23.876Z,26.23
2022-12-31T07:44:21.002Z,25.13
2022-12-31T07:47:19.189Z,23.88
2022-12-31T07:50:04.770Z,23.48
2022-12-31T07:52:49.904Z,22.15
2022-12-31T07:55:34.786Z,22.10
2022-12-31T07:58:24.505Z,23.05
2022-12-31T08:01:11.912Z,24.50
2022-12-31T08:04:06.745Z,24.75
2022-12-31T08:07:12.388Z,25.88
2022-12-31T08:10:00.032Z,23.60
2022-12-31T08:12:46.560Z,23.10
2022-12-31T08:15:31.936Z,22.73
2022-12-31T08:18:17.119Z,23.30
2022-12-31T08:21:05.364Z,22.42
2022-12-31T08:24:06.295Z,21.83
2022-12-31T08:27:11.837Z,21.08
2022-12-31T08:30:08.993Z,21.90
2022-12-31T08:33:13.349Z,22.45
2022-12-31T08:36:19.525Z,25.67
2022-12-31T08:39:22.584Z,43.15
2022-12-31T08:45:46.666Z,23.17
2022-12-31T08:48:38.580Z,19.15
2022-12-31T08:51:25.925Z,19.20
2022-12-31T08:54:11.757Z,17.63
2022-12-31T08:57:26.974Z,17.67
2022-12-31T09:00:17.729Z,18.33
2022-12-31T09:03:02.330Z,15.27
2022-12-31T09:09:14.808Z,16.88
2022-12-31T09:12:17.831Z,16.10
2022-12-31T09:15:36.664Z,16.45
2022-12-31T09:18:27.059Z,16.75
2022-12-31T09:21:15.569Z,17.25
2022-12-31T09:24:05.834Z,17.10
2022-12-31T09:27:01.253Z,15.68
2022-12-31T09:30:05.538Z,16.30
2022-12-31T09:32:58.593Z,15.55
2022-12-31T09:35:57.801Z,17.15
2022-12-31T09:38:51.961Z,16.15
2022-12-31T09:41:51.836Z,14.43
2022-12-31T09:44:54.896Z,15.63
2022-12-31T09:48:23.541Z,15.45
2022-12-31T09:51:30.309Z,15.00
2022-12-31T09:54:27.804Z,15.00
2022-12-31T09:57:15.735Z,16.83
2022-12-31T10:00:16.723Z,15.40
2022-12-31T10:03:30.118Z,15.77
2022-12-31T10:06:47.710Z,16.80
2022-12-31T10:09:51.360Z,16.20
2022-12-31T10:12:41.982Z,18.48
2022-12-31T10:15:45.313Z,16.75
2022-12-31T10:18:45.948Z,18.08
2022-12-31T14:57:16.215Z,15.45
2022-12-31T15:00:23.186Z,14.18
2022-12-31T15:03:14.356Z,13.75
2022-12-31T15:06:20.675Z,15.60
2022-12-31T15:09:14.257Z,14.27
2022-12-31T15:12:20.079Z,14.23
2022-12-31T15:15:43.019Z,14.77
2022-12-31T15:19:04.929Z,15.73
2022-12-31T15:21:49.448Z,15.18
2022-12-31T15:24:34.822Z,16.10
2022-12-31T15:27:37.736Z,16.27
2022-12-31T15:30:47.302Z,16.05
2022-12-31T15:33:52.039Z,15.98
2022-12-31T15:36:52.476Z,14.00
2022-12-31T15:39:40.776Z,13.80
2022-12-31T15:42:39.180Z,13.43
2022-12-31T15:45:38.634Z,12.68
2022-12-31T15:48:51.663Z,13.02
2022-12-31T15:52:01.738Z,13.13
2022-12-31T15:54:52.548Z,13.73
2022-12-31T15:57:40.684Z,13.48
2022-12-31T16:00:34.796Z,14.02
2022-12-31T16:03:23.075Z,14.55
2022-12-31T16:06:12.811Z,14.18
2022-12-31T16:08:58.177Z,13.75
2022-12-31T16:11:43.872Z,14.25
2022-12-31T16:14:51.271Z,15.77
2022-12-31T16:17:38.459Z,16.00
2022-12-31T16:20:26.655Z,14.43
2022-12-31T16:23:25.684Z,14.35
2022-12-31T16:26:10.660Z,12.80
2022-12-31T16:28:59.948Z,15.25
2022-12-31T16:31:46.852Z,13.63
2022-12-31T16:34:37.025Z,14.38
2022-12-31T16:37:23.144Z,12.52
2022-12-31T16:40:17.509Z,14.20
2022-12-31T16:43:02.343Z,13.32
2022-12-31T16:48:33.051Z,13.55
2022-12-31T16:51:22.651Z,13.63
2022-12-31T16:54:20.339Z,13.77
2022-12-31T16:57:05.702Z,14.43
2022-12-31T17:00:15.017Z,14.40
2022-12-31T17:03:17.108Z,14.15
2022-12-31T17:06:12.054Z,13.85
2022-12-31T17:09:00.029Z,13.75
2022-12-31T17:12:24.551Z,14.23
2022-12-31T17:15:23.318Z,13.10
2022-12-31T17:18:17.113Z,12.85
2022-12-31T17:21:09.307Z,14.10
2022-12-31T17:23:58.765Z,13.70
2022-12-31T17:26:44.355Z,14.32
2022-12-31T17:29:29.132Z,14.38
2022-12-31T17:32:36.728Z,14.48
2022-12-31T17:35:32.091Z,13.30
2022-12-31T17:38:23.034Z,13.38
2022-12-31T17:41:07.694Z,11.93
2022-12-31T17:43:56.452Z,12.38
2022-12-31T17:46:41.729Z,12.85
2022-12-31T17:49:30.614Z,13.55
2022-12-31T17:52:17.407Z,12.43
2022-12-31T17:55:02.324Z,12.52
2022-12-31T17:57:53.310Z,13.23
2022-12-31T18:00:38.385Z,12.32
2022-12-31T18:03:23.356Z,12.48
2022-12-31T18:06:16.064Z,12.23
2022-12-31T18:09:01.955Z,11.95
2022-12-31T18:11:47.044Z,12.15
2022-12-31T18:14:31.792Z,12.23
2022-12-31T18:17:16.679Z,13.70
2022-12-31T18:20:05.774Z,12.93
2022-12-31T18:22:51.811Z,12.25
2022-12-31T18:28:20.935Z,12.40
2022-12-31T18:33:53.076Z,13.23
2022-12-31T18:36:37.718Z,12.65
2022-12-31T18:39:22.721Z,11.70
2022-12-31T18:42:12.334Z,13.00
2022-12-31T18:44:57.245Z,16.17
2022-12-31T18:47:42.159Z,17.60
2022-12-31T18:50:27.233Z,14.80
2022-12-31T18:53:21.242Z,14.15
2022-12-31T18:56:14.108Z,12.55
2022-12-31T18:58:59.119Z,12.90
2022-12-31T19:01:43.911Z,12.27
2022-12-31T19:04:28.705Z,12.63
2022-12-31T19:07:14.031Z,13.63
2022-12-31T19:09:58.952Z,13.57
2022-12-31T19:12:44.073Z,13.73
2022-12-31T19:15:33.174Z,13.32
2022-12-31T19:18:18.813Z,12.35
2022-12-31T19:21:04.569Z,13.40
2022-12-31T19:23:50.200Z,12.63
2022-12-31T19:26:39.642Z,12.70
2022-12-31T19:29:28.485Z,12.82
2022-12-31T19:32:13.243Z,14.20
2022-12-31T19:34:57.735Z,13.88
2022-12-31T19:37:44.540Z,14.15
2022-12-31T19:40:30.271Z,14.38
2022-12-31T19:43:17.245Z,14.15
2022-12-31T19:46:03.593Z,14.57
2022-12-31T19:48:48.433Z,13.55
2022-12-31T19:51:33.256Z,14.00
2022-12-31T19:54:18.269Z,14.00
2022-12-31T19:57:03.451Z,13.52
2022-12-31T19:59:48.489Z,14.90
2022-12-31T20:02:33.794Z,13.85
2022-12-31T20:05:18.941Z,14.10
2022-12-31T20:08:03.926Z,13.30
2022-12-31T20:10:50.032Z,13.23
2022-12-31T20:13:35.907Z,13.68
2022-12-31T20:16:23.818Z,13.95
2022-12-31T20:19:09.609Z,13.65
2022-12-31T20:21:54.913Z,12.38
2022-12-31T20:24:39.872Z,14.68
2022-12-31T20:27:24.746Z,14.13
2022-12-31T20:30:10.285Z,14.25
2022-12-31T20:32:55.401Z,13.98
2022-12-31T20:35:40.189Z,14.23
2022-12-31T20:38:27.148Z,15.00
2022-12-31T20:41:15.089Z,14.02
2022-12-31T20:44:00.089Z,14.57
2022-12-31T20:46:44.670Z,13.75
2022-12-31T20:49:52.514Z,14.70
2022-12-31T20:52:34.355Z,13.73
2022-12-31T20:55:18.962Z,14.30
2022-12-31T20:58:05.562Z,13.75
2022-12-31T21:00:51.818Z,13.40
2022-12-31T21:04:04.514Z,13.27
2022-12-31T21:06:43.054Z,13.57
2022-12-31T21:09:27.982Z,13.70
2022-12-31T21:12:31.461Z,14.52
2022-12-31T21:15:16.398Z,13.77
2022-12-31T21:18:01.243Z,13.30
2022-12-31T21:20:50.821Z,12.88
2022-12-31T21:23:35.831Z,12.98
2022-12-31T21:26:20.598Z,13.30
2022-12-31T21:29:05.240Z,12.05
2022-12-31T21:31:50.059Z,12.07
2022-12-31T21:34:34.711Z,12.00
2022-12-31T21:37:19.882Z,12.85
2022-12-31T21:40:05.390Z,12.52
2022-12-31T21:42:50.491Z,11.07
2022-12-31T21:45:35.480Z,11.55
2022-12-31T21:48:20.744Z,12.20
2022-12-31T21:51:15.280Z,10.48
2022-12-31T21:53:59.845Z,11.20
2022-12-31T21:56:44.274Z,11.05
2022-12-31T21:59:48.950Z,10.48
2022-12-31T22:02:59.125Z,10.10
2022-12-31T22:05:47.200Z,10.13
2022-12-31T22:08:32.500Z,9.15
2022-12-31T22:11:19.863Z,9.25
2022-12-31T22:14:04.656Z,9.40
2022-12-31T22:16:49.617Z,9.00
2022-12-31T22:19:54.486Z,8.90
2022-12-31T22:22:38.851Z,8.93
2022-12-31T22:25:23.591Z,8.30
2022-12-31T22:31:18.329Z,7.50
2022-12-31T22:34:03.278Z,8.25
2022-12-31T22:39:43.369Z,8.68
2022-12-31T22:42:29.285Z,8.07
2022-12-31T22:45:14.233Z,8.00
2022-12-31T22:47:58.729Z,8.02
2022-12-31T22:50:43.957Z,7.90
2022-12-31T22:53:28.874Z,8.35
2022-12-31T22:56:16.954Z,8.32
2022-12-31T22:59:02.129Z,7.90
2022-12-31T23:01:46.939Z,8.18
2022-12-31T23:04:31.779Z,8.13
2022-12-31T23:07:16.712Z,8.93
2022-12-31T23:10:20.260Z,8.45
2022-12-31T23:13:23.703Z,8.32
2022-12-31T23:16:26.915Z,7.68
2022-12-31T23:19:30.637Z,7.78
2022-12-31T23:22:34.331Z,7.72
2022-12-31T23:25:19.253Z,7.55
2022-12-31T23:28:05.241Z,7.00
2022-12-31T23:30:51.491Z,8.75
2022-12-31T23:33:36.324Z,7.30
2022-12-31T23:36:21.076Z,7.63
2022-12-31T23:39:05.681Z,7.32
2022-12-31T23:44:35.315Z,7.00
2022-12-31T23:47:19.715Z,7.30
2022-12-31T23:50:05.149Z,6.88
2022-12-31T23:52:50.253Z,7.18
2022-12-31T23:55:35.422Z,7.10
2022-12-31T23:58:20.917Z,6.40
